Honiara, Solomon Islands

4:30 PM SBT on June 30, 2015 (GMT +1100)
Henderson | | Change Station
CLOSE
Current Station
Airport
Location: Honiara,
Elevation: 30 ft
Nearby Weather Stations

Elev 30 ft 9.43 °S, 160.05 °E | Updated 30 minutes ago

Overcast
Overcast
81 °F
Feels Like 86 °F
N
14
Wind Variable Wind from East

Today
High -- | Low -- °F
--% Chance of Precip.
Yesterday
High -- | Low -- °F
Precip. -- in
6:35 AM 6:10 PM
Waxing Gibbous, 96% visible
Pressure 29.74 in
Visibility 6.2 miles
Clouds Few 600 ft
Mostly Cloudy 2800 ft
Overcast 10000 ft
Heat Index 86 °F
Dew Point 75 °F
Humidity 84%
Rainfall 0.00 in
Snow Depth Not available.
UV 1 out of 12
Pollen Not available.
Air Quality Not available.
Flu Activity Not available.
METAR AGGH 300500Z 09012KT 9999 FEW006 BKN028 OVC100 27/24 Q1007

More Conditions Fewer Conditions

Pressure 29.74 in
Visibility 6.2 miles
Clouds Few 600 ft
Mostly Cloudy 2800 ft
Overcast 10000 ft
Heat Index 86 °F
Dew Point 75 °F
Humidity 84%
Rainfall 0.00 in
Snow Depth Not available.
UV 1 out of 12
Pollen Not available.
Air Quality Not available.
Flu Activity Not available.
METAR AGGH 300500Z 09012KT 9999 FEW006 BKN028 OVC100 27/24 Q1007

More Conditions Fewer Conditions

10-Day Weather Forecast

×

Almanac

Astronomy

Jun. 30, 2015 Rise Set
Actual Time
Civil Twilight
Nautical Twilight
Astronomical Twilight
Moon
Length of Visible Light
Length of Day
Tomorrow will be .
, % of the Moon is Illuminated

Today's Extremes

Country Highs Country Lows

Community

WunderPhotos

Upload Photos

1,833,970 photos uploaded!

WunderBlogs® & News

Nearby

Air Quality

  Air Quality AQ Index Pollutant
Not available.

Snow Depth

Station Depth Elevation

Earthquake Activity

City Distance Mag. Time & Date
Minimum magnitude displayed is 2.5.

Coastal Water Temperatures

Place Temperature

Stations

Nearby Weather Stations

Station Location Temp. Windchill Dew Point Humidity Wind Precip. Elev Updated Type